Time;durP1;ratioP1;P1;durP2;ratioP2;P2;SDS_P1;SDS_P2;PMS_P1;PMS_P2;Temp;Humidity;BMP_temperature;BMP_pressure;BME280_temperature;BME280_humidity;BME280_pressure;Samples;Min_cycle;Max_cycle;Signal;HPM_P1;HPM_P2
2021/09/27 00:02:14;;;;;;;15.10;7.87;;;10.70;99.90;;;;;;4431168;32;20191;-63
2021/09/27 00:04:41;;;;;;;17.63;7.50;;;10.70;99.90;;;;;;4431315;32;20458;-62
2021/09/27 00:07:07;;;;;;;17.10;7.70;;;10.70;99.90;;;;;;4426763;32;20188;-63
2021/09/27 00:09:34;;;;;;;16.83;7.80;;;10.70;99.90;;;;;;4426239;32;20127;-63
2021/09/27 00:12:08;;;;;;;13.93;7.43;;;10.60;99.90;;;;;;4427141;32;20226;-62
2021/09/27 00:14:34;;;;;;;15.60;7.60;;;10.60;99.90;;;;;;4425644;32;20465;-63
2021/09/27 00:17:03;;;;;;;19.33;8.00;;;10.60;99.90;;;;;;4427214;32;20143;-63
2021/09/27 00:19:30;;;;;;;13.77;7.77;;;10.50;99.90;;;;;;4427346;32;20127;-63
2021/09/27 00:21:56;;;;;;;14.83;7.00;;;10.50;99.90;;;;;;4425438;32;20541;-63
2021/09/27 00:24:23;;;;;;;14.57;7.53;;;10.40;99.90;;;;;;4425545;32;20139;-63
2021/09/27 00:26:50;;;;;;;18.37;7.63;;;10.40;99.90;;;;;;4425356;32;20135;-64
2021/09/27 00:29:16;;;;;;;17.67;8.00;;;10.40;99.90;;;;;;4425133;32;20554;-63
2021/09/27 00:31:43;;;;;;;14.60;7.30;;;10.40;99.90;;;;;;4425342;32;20136;-63
2021/09/27 00:34:11;;;;;;;16.20;7.63;;;10.30;99.90;;;;;;4425919;32;20215;-63
2021/09/27 00:36:38;;;;;;;15.70;7.47;;;10.30;99.90;;;;;;4425206;32;20136;-62
2021/09/27 00:39:06;;;;;;;15.30;7.53;;;10.30;99.90;;;;;;4426877;32;20131;-62
2021/09/27 00:41:33;;;;;;;17.97;7.77;;;10.30;99.90;;;;;;4424692;32;20184;-62
2021/09/27 00:44:00;;;;;;;14.33;7.70;;;10.30;99.90;;;;;;4425387;32;20135;-62
2021/09/27 00:46:28;;;;;;;15.63;7.70;;;10.30;99.90;;;;;;4424449;32;20518;-63
2021/09/27 00:48:56;;;;;;;15.50;7.33;;;10.20;99.90;;;;;;4424768;32;20457;-63
2021/09/27 00:51:43;;;;;;;13.93;6.80;;;10.20;99.90;;;;;;4426678;32;20163;-63
2021/09/27 00:54:19;;;;;;;17.07;7.20;;;10.20;99.90;;;;;;4425955;32;20139;-63
2021/09/27 00:56:52;;;;;;;14.30;6.80;;;10.20;99.90;;;;;;4425033;32;20138;-63
2021/09/27 00:59:22;;;;;;;16.30;7.07;;;10.10;99.90;;;;;;4425186;32;20139;-63
2021/09/27 01:01:49;;;;;;;12.50;6.77;;;10.10;99.90;;;;;;4429258;32;20147;-63
2021/09/27 01:04:16;;;;;;;14.20;6.80;;;10.10;99.90;;;;;;4430719;32;20143;-64
2021/09/27 01:06:55;;;;;;;13.73;6.53;;;10.00;99.90;;;;;;4425902;32;20147;-63
2021/09/27 01:09:40;;;;;;;13.53;6.70;;;10.10;99.90;;;;;;4424963;32;20526;-63
2021/09/27 01:12:33;;;;;;;14.67;6.60;;;10.00;99.90;;;;;;4424724;32;20193;-63
2021/09/27 01:15:28;;;;;;;12.43;6.83;;;10.00;99.90;;;;;;4426379;32;20426;-62
2021/09/27 01:18:07;;;;;;;16.63;6.83;;;10.00;99.90;;;;;;4424375;32;20138;-63
2021/09/27 01:20:43;;;;;;;17.03;6.67;;;10.00;99.90;;;;;;4426109;32;20139;-62
2021/09/27 01:23:19;;;;;;;15.67;7.00;;;10.00;99.90;;;;;;4424620;32;20387;-63
2021/09/27 01:25:48;;;;;;;12.27;6.20;;;10.00;99.90;;;;;;4424191;32;20533;-63
2021/09/27 01:28:57;;;;;;;14.50;6.90;;;10.00;99.90;;;;;;4424153;32;20473;-62
2021/09/27 01:31:59;;;;;;;11.77;6.53;;;10.00;99.90;;;;;;4424354;32;20216;-63
2021/09/27 01:34:43;;;;;;;11.57;6.27;;;9.90;99.90;;;;;;4391605;32;20163;-62
2021/09/27 01:37:46;;;;;;;10.83;5.93;;;9.90;99.90;;;;;;4391837;32;20209;-63
2021/09/27 01:40:19;;;;;;;12.57;6.07;;;9.90;99.90;;;;;;4393717;32;20201;-63
2021/09/27 01:43:15;;;;;;;12.00;5.87;;;9.90;99.90;;;;;;4391537;32;20189;-62
2021/09/27 01:46:08;;;;;;;13.13;6.03;;;9.90;99.90;;;;;;4392473;32;20230;-63
2021/09/27 01:48:45;;;;;;;10.70;5.73;;;9.80;99.90;;;;;;4393578;32;20170;-63
2021/09/27 01:51:23;;;;;;;14.57;6.07;;;9.80;99.90;;;;;;4393272;32;20605;-62
2021/09/27 01:53:57;;;;;;;11.47;5.70;;;9.80;99.90;;;;;;4391556;32;20189;-62
2021/09/27 01:56:52;;;;;;;12.53;6.37;;;9.80;99.90;;;;;;4392951;32;20469;-63
2021/09/27 01:59:37;;;;;;;10.77;6.07;;;9.80;99.90;;;;;;4392396;32;20191;-63
2021/09/27 02:02:29;;;;;;;12.20;5.60;;;9.70;99.90;;;;;;4391556;32;20535;-64
2021/09/27 02:05:05;;;;;;;11.03;5.63;;;9.70;99.90;;;;;;4392265;32;20136;-63
2021/09/27 02:07:39;;;;;;;12.90;5.73;;;9.70;99.90;;;;;;4391600;32;20159;-63
2021/09/27 02:10:29;;;;;;;11.37;5.40;;;9.70;99.90;;;;;;4408785;32;20521;-64
2021/09/27 02:13:08;;;;;;;10.40;5.20;;;9.60;99.90;;;;;;4425872;32;20416;-64
2021/09/27 02:16:06;;;;;;;10.57;5.20;;;9.60;99.90;;;;;;4423599;32;20177;-63
2021/09/27 02:18:46;;;;;;;13.10;5.17;;;9.60;99.90;;;;;;4412068;32;20227;-63
2021/09/27 02:21:21;;;;;;;9.37;4.83;;;9.60;99.90;;;;;;4423062;32;20174;-62
2021/09/27 02:24:18;;;;;;;8.70;4.90;;;9.60;99.90;;;;;;4425045;32;20243;-63
2021/09/27 02:26:54;;;;;;;12.47;5.50;;;9.60;99.90;;;;;;4423782;32;20443;-62
2021/09/27 02:29:52;;;;;;;9.80;5.00;;;9.60;99.90;;;;;;4423389;32;20173;-63
2021/09/27 02:32:53;;;;;;;11.27;5.13;;;9.60;99.90;;;;;;4423377;32;20525;-63
2021/09/27 02:36:19;;;;;;;9.37;4.93;;;9.60;99.90;;;;;;4425339;32;20200;-64
2021/09/27 02:39:25;;;;;;;9.87;4.80;;;9.50;99.90;;;;;;4392629;32;20457;-64
2021/09/27 02:42:14;;;;;;;12.20;5.03;;;9.50;99.90;;;;;;4392781;32;20462;-64
2021/09/27 02:44:41;;;;;;;8.17;4.80;;;9.50;99.90;;;;;;4392944;32;20199;-62
2021/09/27 02:47:12;;;;;;;11.27;5.10;;;9.50;99.90;;;;;;4392260;32;20205;-62
2021/09/27 02:49:45;;;;;;;9.60;5.03;;;9.50;99.90;;;;;;4390968;32;20171;-62
2021/09/27 02:52:21;;;;;;;12.53;5.90;;;9.50;99.90;;;;;;4390753;32;20493;-62
2021/09/27 02:54:56;;;;;;;8.97;4.90;;;9.50;99.90;;;;;;4392788;32;20139;-63
2021/09/27 02:57:37;;;;;;;8.63;5.10;;;9.40;99.90;;;;;;4390776;32;20201;-64
2021/09/27 03:00:29;;;;;;;10.60;5.17;;;9.40;99.90;;;;;;4391211;32;20194;-63
2021/09/27 03:03:12;;;;;;;10.33;4.67;;;9.40;99.90;;;;;;4391499;32;20155;-63
2021/09/27 03:05:45;;;;;;;9.73;4.90;;;9.40;99.90;;;;;;4390746;32;20140;-62
2021/09/27 03:08:32;;;;;;;10.93;5.23;;;9.40;99.90;;;;;;4391726;32;20165;-63
2021/09/27 03:11:28;;;;;;;11.67;5.17;;;9.40;99.90;;;;;;4393668;32;20458;-62
2021/09/27 03:14:22;;;;;;;10.97;5.30;;;9.30;99.90;;;;;;4395178;32;20237;-63
2021/09/27 03:16:58;;;;;;;8.57;4.53;;;9.30;99.90;;;;;;4424773;32;20510;-63
2021/09/27 03:19:28;;;;;;;11.00;4.87;;;9.30;99.90;;;;;;4427412;32;20134;-63
2021/09/27 03:22:18;;;;;;;9.27;4.87;;;9.30;99.90;;;;;;4427153;32;20208;-63
2021/09/27 03:25:00;;;;;;;8.73;4.80;;;9.30;99.90;;;;;;4421719;32;20171;-63
2021/09/27 03:27:46;;;;;;;11.87;5.30;;;9.30;99.90;;;;;;4427963;32;20127;-63
2021/09/27 03:30:32;;;;;;;12.20;5.00;;;9.30;99.90;;;;;;4426050;32;20460;-62
2021/09/27 03:33:27;;;;;;;8.50;4.80;;;9.30;99.90;;;;;;4427858;32;20185;-62
2021/09/27 03:36:22;;;;;;;9.93;4.50;;;9.20;99.90;;;;;;4426022;32;20139;-63
2021/09/27 03:39:08;;;;;;;11.83;5.37;;;9.20;99.90;;;;;;4427447;32;20420;-63
2021/09/27 03:41:50;;;;;;;9.20;5.10;;;9.20;99.90;;;;;;4427941;32;20126;-63
2021/09/27 03:44:25;;;;;;;9.87;5.00;;;9.20;99.90;;;;;;4426158;32;20514;-62
2021/09/27 03:47:29;;;;;;;13.67;5.03;;;9.20;99.90;;;;;;4427501;32;20158;-63
2021/09/27 03:50:07;;;;;;;9.50;5.13;;;9.20;99.90;;;;;;4427231;32;20127;-63
2021/09/27 03:52:37;;;;;;;8.77;4.73;;;9.20;99.90;;;;;;4426022;32;20211;-63
2021/09/27 03:55:38;;;;;;;10.07;5.30;;;9.20;99.90;;;;;;4426013;32;20184;-63
2021/09/27 03:58:11;;;;;;;13.30;5.37;;;9.10;99.90;;;;;;4414745;32;20159;-62
2021/09/27 04:00:48;;;;;;;8.73;5.07;;;9.10;99.90;;;;;;4425711;32;20179;-62
2021/09/27 04:03:18;;;;;;;13.37;5.40;;;9.10;99.90;;;;;;4427135;32;20130;-63
2021/09/27 04:05:55;;;;;;;10.43;5.27;;;9.10;99.90;;;;;;4424686;32;20139;-63
2021/09/27 04:08:32;;;;;;;10.03;4.93;;;9.10;99.90;;;;;;4425856;32;20211;-64
2021/09/27 04:11:34;;;;;;;10.80;4.90;;;9.10;99.90;;;;;;4426558;32;20192;-63
2021/09/27 04:14:14;;;;;;;12.33;5.17;;;9.00;99.90;;;;;;4414913;32;20367;-63
2021/09/27 04:16:56;;;;;;;12.73;5.50;;;9.00;99.90;;;;;;4425769;32;20133;-64
2021/09/27 04:19:37;;;;;;;9.87;5.00;;;9.00;99.90;;;;;;4424758;32;20147;-63
2021/09/27 04:22:22;;;;;;;9.93;4.47;;;8.90;99.90;;;;;;4429269;32;20525;-63
2021/09/27 04:25:04;;;;;;;11.60;5.00;;;9.00;99.90;;;;;;4432918;32;20204;-63
2021/09/27 04:27:58;;;;;;;12.17;4.67;;;8.90;99.90;;;;;;4427143;32;20151;-63
2021/09/27 04:30:56;;;;;;;9.93;4.77;;;8.90;99.90;;;;;;4424442;32;20191;-62
2021/09/27 04:33:55;;;;;;;9.67;5.00;;;8.90;99.90;;;;;;4422849;32;20625;-62
2021/09/27 04:36:53;;;;;;;10.83;5.10;;;8.90;99.90;;;;;;4426430;32;20167;-63
2021/09/27 04:39:32;;;;;;;13.10;5.20;;;8.90;99.90;;;;;;4426975;32;20182;-64
2021/09/27 04:42:24;;;;;;;9.13;5.13;;;8.90;99.90;;;;;;4425290;32;20131;-63
2021/09/27 04:45:22;;;;;;;9.27;4.77;;;8.90;99.90;;;;;;4425257;32;20243;-65
2021/09/27 04:48:17;;;;;;;11.27;5.20;;;8.90;99.90;;;;;;4425082;32;20150;-64
2021/09/27 04:51:02;;;;;;;9.90;4.93;;;8.90;99.90;;;;;;4426779;32;20186;-63
2021/09/27 04:54:17;;;;;;;12.73;5.00;;;8.90;99.90;;;;;;4426662;32;20185;-63
2021/09/27 04:57:19;;;;;;;10.40;4.97;;;8.90;99.90;;;;;;4392749;32;20197;-63
2021/09/27 04:59:54;;;;;;;10.47;4.93;;;8.90;99.90;;;;;;4392332;32;20486;-65
2021/09/27 05:02:26;;;;;;;10.40;4.80;;;8.90;99.90;;;;;;4398801;32;20625;-63
2021/09/27 05:05:05;;;;;;;10.43;5.17;;;8.90;99.90;;;;;;4394232;32;20213;-62
2021/09/27 05:07:32;;;;;;;12.37;5.17;;;8.90;99.90;;;;;;4392419;32;20594;-62
2021/09/27 05:10:04;;;;;;;11.43;5.20;;;9.00;99.90;;;;;;4393753;32;20575;-63
2021/09/27 05:12:49;;;;;;;8.67;4.77;;;9.00;99.90;;;;;;4386376;32;20202;-63
2021/09/27 05:15:53;;;;;;;9.67;4.97;;;9.00;99.90;;;;;;4393240;32;20162;-63
2021/09/27 05:18:51;;;;;;;13.40;5.20;;;9.00;99.90;;;;;;4393385;32;20147;-63
2021/09/27 05:22:00;;;;;;;10.27;4.87;;;9.00;99.90;;;;;;4392498;32;20221;-63
2021/09/27 05:24:51;;;;;;;9.30;5.20;;;9.10;99.90;;;;;;4393489;32;20143;-63
2021/09/27 05:27:30;;;;;;;9.60;5.20;;;9.20;99.90;;;;;;4393430;32;20209;-64
2021/09/27 05:30:20;;;;;;;11.13;4.93;;;9.30;99.90;;;;;;4393949;32;20170;-63
2021/09/27 05:33:27;;;;;;;9.67;5.13;;;9.30;99.90;;;;;;4416707;32;20173;-63
2021/09/27 05:36:12;;;;;;;10.73;5.10;;;9.30;99.90;;;;;;4365449;32;20221;-64
2021/09/27 05:39:10;;;;;;;10.03;4.90;;;9.40;99.90;;;;;;4363386;32;20207;-62
2021/09/27 05:42:29;;;;;;;11.43;5.10;;;9.40;99.90;;;;;;4361416;32;20190;-62
2021/09/27 05:45:32;;;;;;;9.60;4.60;;;9.50;99.90;;;;;;4360952;33;20201;-63
2021/09/27 05:48:15;;;;;;;11.30;4.83;;;9.60;99.90;;;;;;4361611;33;20485;-63
2021/09/27 05:51:07;;;;;;;13.63;5.10;;;9.70;99.90;;;;;;4363248;32;20354;-63
2021/09/27 05:54:10;;;;;;;9.50;4.97;;;9.70;99.90;;;;;;4363277;32;20486;-63
2021/09/27 05:57:02;;;;;;;12.23;5.33;;;9.80;99.90;;;;;;4363550;32;20148;-64
2021/09/27 05:59:54;;;;;;;9.47;5.10;;;9.90;99.90;;;;;;4363095;32;20218;-64
2021/09/27 06:05:59;;;;;;;11.83;5.10;;;10.10;99.90;;;;;;4363417;32;20180;-63
2021/09/27 06:09:03;;;;;;;11.70;4.83;;;10.20;99.90;;;;;;4361678;33;20293;-63
2021/09/27 06:12:19;;;;;;;12.00;4.80;;;10.30;99.90;;;;;;4361831;32;20202;-63
2021/09/27 06:15:08;;;;;;;10.23;5.20;;;10.40;99.90;;;;;;4348345;33;20226;-63
2021/09/27 06:18:24;;;;;;;13.37;5.27;;;10.50;99.90;;;;;;4347832;33;20231;-63
2021/09/27 06:21:32;;;;;;;10.83;4.97;;;10.60;99.90;;;;;;4348330;33;20461;-63
2021/09/27 06:25:09;;;;;;;9.67;4.30;;;10.60;99.90;;;;;;4303622;33;20566;-63
2021/09/27 06:28:17;;;;;;;11.33;5.07;;;10.60;99.90;;;;;;4468566;32;20291;-63
2021/09/27 06:34:46;;;;;;;11.20;4.57;;;10.90;99.90;;;;;;4345768;33;20145;-62
2021/09/27 06:37:49;;;;;;;10.50;5.17;;;11.00;99.90;;;;;;4302261;33;20138;-64
2021/09/27 06:40:46;;;;;;;10.80;4.57;;;11.10;99.90;;;;;;4259034;33;20197;-63
2021/09/27 06:43:38;;;;;;;12.27;4.33;;;11.30;99.90;;;;;;4257405;33;20439;-63
2021/09/27 06:46:20;;;;;;;10.00;4.50;;;11.40;99.90;;;;;;4258786;33;20147;-62
2021/09/27 06:49:02;;;;;;;11.60;4.60;;;11.50;99.90;;;;;;4256685;33;20218;-62
2021/09/27 06:51:46;;;;;;;8.40;4.07;;;11.60;99.90;;;;;;4257260;33;20158;-63
2021/09/27 06:54:39;;;;;;;8.03;4.03;;;11.70;99.90;;;;;;4251958;33;20182;-63
2021/09/27 06:57:32;;;;;;;9.33;4.33;;;11.70;99.90;;;;;;4241542;33;20537;-62
2021/09/27 07:00:21;;;;;;;8.53;4.33;;;11.80;99.90;;;;;;4244426;33;20298;-64
2021/09/27 07:03:10;;;;;;;10.03;4.10;;;11.90;99.90;;;;;;4242989;33;20169;-64
2021/09/27 07:05:54;;;;;;;10.37;4.00;;;12.00;99.90;;;;;;4245070;33;20230;-64
2021/09/27 07:08:46;;;;;;;12.17;4.53;;;12.10;99.90;;;;;;4244566;33;20153;-63
2021/09/27 07:11:41;;;;;;;9.30;3.87;;;12.20;99.90;;;;;;4314862;33;20148;-64
2021/09/27 07:14:15;;;;;;;8.13;4.17;;;12.40;99.90;;;;;;4369201;32;20181;-63
2021/09/27 07:17:09;;;;;;;9.40;3.77;;;12.50;99.90;;;;;;4397800;32;20203;-64
2021/09/27 07:20:18;;;;;;;7.07;3.40;;;12.50;99.90;;;;;;4437502;32;20183;-63
2021/09/27 07:23:02;;;;;;;10.07;3.37;;;12.70;99.90;;;;;;4360046;33;20160;-63
2021/09/27 07:25:44;;;;;;;8.80;3.90;;;12.70;99.90;;;;;;4359811;33;20424;-64
2021/09/27 07:28:17;;;;;;;8.10;3.20;;;12.80;99.90;;;;;;4359998;33;20145;-63
2021/09/27 07:30:54;;;;;;;8.67;3.50;;;13.00;99.90;;;;;;4360080;33;20543;-63
2021/09/27 07:33:46;;;;;;;8.03;3.47;;;13.10;99.90;;;;;;4313774;33;20535;-63
2021/09/27 07:36:35;;;;;;;6.00;2.67;;;13.30;99.90;;;;;;4315997;33;20431;-63
2021/09/27 07:39:19;;;;;;;6.50;3.33;;;13.40;99.90;;;;;;4313007;33;20141;-63
2021/09/27 07:41:55;;;;;;;8.80;3.10;;;13.50;99.90;;;;;;4304159;33;20196;-63
2021/09/27 07:44:41;;;;;;;8.60;3.13;;;13.60;99.90;;;;;;4304004;33;20595;-65
2021/09/27 07:47:31;;;;;;;8.23;3.17;;;13.70;99.90;;;;;;4305743;33;20204;-64
2021/09/27 07:50:20;;;;;;;7.97;3.17;;;13.80;99.90;;;;;;4304179;33;20197;-63
2021/09/27 07:53:05;;;;;;;6.83;3.20;;;13.90;99.90;;;;;;4305055;33;20528;-64
2021/09/27 07:56:36;;;;;;;6.80;3.03;;;14.00;99.90;;;;;;4304098;33;20654;-64
2021/09/27 07:59:37;;;;;;;6.63;2.60;;;14.00;99.90;;;;;;4265257;33;20165;-63
2021/09/27 08:02:19;;;;;;;6.27;2.70;;;14.20;99.90;;;;;;4303190;33;20152;-64
2021/09/27 08:05:01;;;;;;;6.63;2.83;;;14.30;99.90;;;;;;4315301;33;20141;-64
2021/09/27 08:08:09;;;;;;;6.63;2.27;;;14.90;99.90;;;;;;4318240;33;20172;-64
2021/09/27 08:11:07;;;;;;;5.67;2.73;;;15.70;99.90;;;;;;4319911;33;20153;-64
2021/09/27 08:13:35;;;;;;;3.83;2.10;;;16.50;99.90;;;;;;4318128;33;20224;-64
2021/09/27 08:16:15;;;;;;;6.87;2.47;;;17.00;99.90;;;;;;4318388;33;20171;-63
2021/09/27 08:18:51;;;;;;;5.73;2.13;;;17.30;99.90;;;;;;4318183;33;20191;-63
2021/09/27 08:21:38;;;;;;;6.13;2.20;;;17.70;99.90;;;;;;4276170;33;20213;-64
2021/09/27 08:24:17;;;;;;;3.93;2.40;;;17.80;99.90;;;;;;4277496;33;20534;-64
2021/09/27 08:26:53;;;;;;;4.97;2.00;;;18.20;99.90;;;;;;4286316;33;20181;-64
2021/09/27 08:29:30;;;;;;;6.27;2.50;;;18.40;99.90;;;;;;4288849;33;20221;-65
2021/09/27 08:32:08;;;;;;;7.80;2.27;;;18.60;99.90;;;;;;4289470;33;20165;-65
2021/09/27 08:34:43;;;;;;;4.17;1.80;;;19.00;99.90;;;;;;4295429;33;20185;-65
2021/09/27 08:37:18;;;;;;;6.10;2.07;;;19.20;99.90;;;;;;4347624;33;20164;-65
2021/09/27 08:39:50;;;;;;;4.50;1.80;;;19.40;99.90;;;;;;4347606;33;20186;-65
2021/09/27 08:42:24;;;;;;;5.40;2.00;;;19.60;99.90;;;;;;4347601;33;20226;-65
2021/09/27 08:45:12;;;;;;;4.93;1.73;;;20.00;99.90;;;;;;4347305;33;20611;-65
2021/09/27 08:48:01;;;;;;;3.60;1.70;;;20.30;99.90;;;;;;4347993;33;20164;-65
2021/09/27 08:50:31;;;;;;;3.87;2.07;;;20.50;99.90;;;;;;4319017;33;20154;-64
2021/09/27 08:53:02;;;;;;;5.17;1.73;;;20.60;99.90;;;;;;4349611;32;20502;-65
2021/09/27 08:55:30;;;;;;;4.53;1.67;;;20.70;99.90;;;;;;4362139;33;20576;-65
2021/09/27 08:58:13;;;;;;;4.00;1.60;;;20.60;99.90;;;;;;4363666;32;20450;-64
2021/09/27 09:00:49;;;;;;;4.67;1.57;;;20.70;99.90;;;;;;4361803;33;20144;-64
2021/09/27 09:03:23;;;;;;;2.97;1.40;;;21.10;99.90;;;;;;4363511;32;20162;-65
2021/09/27 09:05:53;;;;;;;6.00;1.90;;;21.60;99.90;;;;;;4361990;32;20269;-65
2021/09/27 09:08:26;;;;;;;5.20;1.60;;;22.00;99.90;;;;;;4371020;32;20464;-64
2021/09/27 09:11:01;;;;;;;4.20;1.70;;;22.50;99.90;;;;;;4377459;32;20201;-65
2021/09/27 09:13:41;;;;;;;3.20;1.70;;;22.90;99.90;;;;;;4376330;32;20493;-66
2021/09/27 09:16:12;;;;;;;3.83;1.77;;;23.20;99.90;;;;;;4376518;32;20174;-65
2021/09/27 09:18:45;;;;;;;3.43;1.77;;;23.30;99.90;;;;;;4373703;32;20428;-65
2021/09/27 09:21:19;;;;;;;4.73;1.90;;;23.60;99.60;;;;;;4375503;32;20159;-69
2021/09/27 09:23:57;;;;;;;6.03;2.10;;;23.60;98.50;;;;;;4376464;32;20588;-66
2021/09/27 09:26:28;;;;;;;3.13;1.50;;;23.80;97.30;;;;;;4377453;32;20285;-65
2021/09/27 09:28:56;;;;;;;3.73;1.33;;;24.20;97.00;;;;;;4405599;32;20139;-66
2021/09/27 09:31:33;;;;;;;3.25;1.73;;;24.40;95.60;;;;;;4399681;32;20140;-66
2021/09/27 09:34:19;;;;;;;4.25;1.70;;;24.20;93.20;;;;;;4408231;32;20151;-66
2021/09/27 09:36:51;;;;;;;6.50;2.10;;;24.00;93.20;;;;;;4408717;32;20147;-66
2021/09/27 09:39:32;;;;;;;3.60;1.70;;;23.70;93.90;;;;;;4407641;32;20469;-66
2021/09/27 09:42:04;;;;;;;4.53;1.70;;;23.80;93.90;;;;;;4381531;32;20209;-68
2021/09/27 09:44:38;;;;;;;4.72;1.90;;;24.00;93.60;;;;;;4377908;32;20148;-66
2021/09/27 09:47:27;;;;;;;5.57;1.80;;;24.40;92.60;;;;;;4378025;32;20143;-66
2021/09/27 09:50:26;;;;;;;3.47;1.92;;;24.80;91.90;;;;;;4377971;32;20489;-64
2021/09/27 09:52:57;;;;;;;6.07;1.95;;;24.80;90.80;;;;;;4343352;33;20152;-65
2021/09/27 09:56:12;;;;;;;3.08;1.70;;;25.20;90.80;;;;;;4345967;33;20164;-65
2021/09/27 09:58:45;;;;;;;3.62;1.85;;;25.40;89.70;;;;;;4316262;33;20169;-67
2021/09/27 10:01:18;;;;;;;3.90;1.90;;;25.40;87.00;;;;;;4309506;33;20221;-67
2021/09/27 10:04:24;;;;;;;4.75;1.90;;;25.10;87.00;;;;;;4318247;33;20168;-66
2021/09/27 10:07:05;;;;;;;3.33;1.95;;;25.10;87.80;;;;;;4231190;34;20548;-64
2021/09/27 10:09:36;;;;;;;2.67;1.67;;;25.20;85.10;;;;;;4230850;34;20217;-67
2021/09/27 10:12:33;;;;;;;3.87;1.62;;;25.30;84.90;;;;;;4230970;34;20478;-66
2021/09/27 10:15:00;;;;;;;2.92;1.40;;;25.20;83.30;;;;;;4231000;34;20159;-66
2021/09/27 10:17:38;;;;;;;5.30;1.80;;;25.40;82.80;;;;;;4230913;34;20235;-67
2021/09/27 10:20:18;;;;;;;4.80;1.90;;;25.80;82.30;;;;;;4232322;34;20201;-66
2021/09/27 10:22:57;;;;;;;3.70;2.20;;;25.80;81.20;;;;;;4232526;34;20189;-66
2021/09/27 10:25:34;;;;;;;4.05;2.25;;;25.50;80.00;;;;;;4231481;34;20151;-66
2021/09/27 10:28:06;;;;;;;4.35;1.90;;;25.80;81.20;;;;;;4236460;33;20162;-66
2021/09/27 10:30:36;;;;;;;3.37;1.50;;;26.10;78.90;;;;;;4268544;33;20158;-67
2021/09/27 10:33:12;;;;;;;3.95;1.73;;;26.40;76.50;;;;;;4272925;33;20474;-66
2021/09/27 10:35:46;;;;;;;3.12;1.58;;;26.30;75.20;;;;;;4288643;33;20532;-66
2021/09/27 10:38:24;;;;;;;3.53;1.65;;;26.30;74.90;;;;;;4303496;33;20164;-66
2021/09/27 10:40:52;;;;;;;4.20;1.67;;;26.20;75.00;;;;;;4301766;33;20152;-67
2021/09/27 10:43:23;;;;;;;3.78;1.75;;;26.60;74.10;;;;;;4340615;32;20175;-67
2021/09/27 10:45:54;;;;;;;5.10;1.48;;;26.80;73.90;;;;;;4392676;32;20151;-66
2021/09/27 10:48:22;;;;;;;3.15;1.50;;;27.10;70.60;;;;;;4386511;32;20140;-66
2021/09/27 10:50:59;;;;;;;3.53;1.58;;;27.00;70.00;;;;;;4379125;32;20144;-66
2021/09/27 10:53:30;;;;;;;4.40;1.75;;;26.80;70.70;;;;;;4379173;32;20435;-65
2021/09/27 10:56:35;;;;;;;3.37;1.60;;;27.20;70.50;;;;;;4379058;32;20210;-66
2021/09/27 10:59:05;;;;;;;3.45;1.60;;;27.90;69.30;;;;;;4379170;32;20148;-66
2021/09/27 11:01:51;;;;;;;4.25;1.70;;;28.30;69.10;;;;;;4377622;32;20209;-65
2021/09/27 11:04:53;;;;;;;2.90;1.70;;;28.40;66.40;;;;;;4379352;32;20172;-65
2021/09/27 11:07:39;;;;;;;2.20;1.45;;;28.50;65.40;;;;;;4384437;32;20179;-64
2021/09/27 11:10:42;;;;;;;4.20;1.52;;;28.40;66.10;;;;;;4387406;32;20182;-67
2021/09/27 11:13:29;;;;;;;2.67;1.40;;;28.30;63.60;;;;;;4394606;32;20589;-66
2021/09/27 11:15:58;;;;;;;2.20;1.58;;;28.60;64.60;;;;;;4396411;32;20230;-66
2021/09/27 11:18:28;;;;;;;3.60;1.70;;;28.80;64.90;;;;;;4389071;32;20136;-66
2021/09/27 11:21:17;;;;;;;3.72;1.60;;;29.10;63.30;;;;;;4379790;32;20197;-66
2021/09/27 11:23:46;;;;;;;2.42;1.48;;;29.50;63.70;;;;;;4381867;32;20637;-67
2021/09/27 11:26:18;;;;;;;2.95;1.40;;;30.00;62.10;;;;;;4380059;32;20160;-66
2021/09/27 11:28:53;;;;;;;3.72;1.40;;;30.30;60.50;;;;;;4401964;32;20416;-65
2021/09/27 11:31:26;;;;;;;4.07;1.10;;;30.70;56.50;;;;;;4408774;32;20143;-66
2021/09/27 11:34:17;;;;;;;2.00;1.20;;;30.60;56.00;;;;;;4407100;32;20147;-65
2021/09/27 11:37:16;;;;;;;3.12;1.12;;;31.50;54.30;;;;;;4406622;32;20171;-65
2021/09/27 11:39:49;;;;;;;2.78;1.12;;;31.40;50.80;;;;;;4403878;32;20201;-67
2021/09/27 11:42:18;;;;;;;1.98;1.17;;;31.50;50.90;;;;;;4407476;32;20196;-65
2021/09/27 11:45:12;;;;;;;2.15;1.00;;;31.30;50.20;;;;;;4413100;32;20185;-64
2021/09/27 11:47:45;;;;;;;2.92;1.10;;;31.50;51.20;;;;;;4410087;32;20142;-64
2021/09/27 11:50:45;;;;;;;2.70;1.35;;;31.80;51.50;;;;;;4411847;32;20473;-65
2021/09/27 11:53:39;;;;;;;3.53;1.10;;;31.90;50.90;;;;;;4362566;32;20160;-65
2021/09/27 11:56:22;;;;;;;2.70;1.40;;;32.40;51.00;;;;;;4363887;32;20191;-65
2021/09/27 11:58:56;;;;;;;2.87;1.15;;;32.60;49.50;;;;;;4362198;32;20187;-65
2021/09/27 12:01:50;;;;;;;4.75;1.23;;;33.00;49.30;;;;;;4362454;32;20151;-66
2021/09/27 12:04:41;;;;;;;2.03;1.05;;;33.30;48.10;;;;;;4363418;32;20190;-64
2021/09/27 12:07:11;;;;;;;1.77;1.20;;;32.90;46.70;;;;;;4347186;33;20199;-63
2021/09/27 12:09:41;;;;;;;2.12;0.95;;;32.90;47.10;;;;;;4351947;32;20211;-65
2021/09/27 12:12:21;;;;;;;2.17;1.10;;;33.40;46.30;;;;;;4363732;32;20230;-66
2021/09/27 12:14:49;;;;;;;2.25;1.10;;;33.30;44.90;;;;;;4364124;32;20148;-66
2021/09/27 12:17:20;;;;;;;3.75;1.20;;;32.50;46.30;;;;;;4362220;32;20155;-64
2021/09/27 12:20:08;;;;;;;2.35;1.23;;;32.60;46.20;;;;;;4363642;32;20262;-65
2021/09/27 12:22:45;;;;;;;1.60;1.10;;;33.10;45.90;;;;;;4359622;32;20168;-64
2021/09/27 12:25:18;;;;;;;2.90;1.20;;;32.80;46.00;;;;;;4359975;32;20152;-64
2021/09/27 12:27:55;;;;;;;3.20;1.20;;;32.90;45.50;;;;;;4363312;32;20226;-63
2021/09/27 12:30:25;;;;;;;2.75;1.00;;;33.00;45.50;;;;;;4379597;32;20221;-67
2021/09/27 12:32:59;;;;;;;3.75;1.05;;;32.80;44.70;;;;;;4396130;32;20221;-66
2021/09/27 12:35:37;;;;;;;2.50;1.25;;;33.00;44.60;;;;;;4393656;32;20170;-65
2021/09/27 12:38:05;;;;;;;3.78;1.17;;;32.90;44.80;;;;;;4389715;32;20139;-66
2021/09/27 12:40:50;;;;;;;1.85;1.05;;;33.00;44.70;;;;;;4389410;32;20360;-64
2021/09/27 12:43:21;;;;;;;2.33;1.20;;;32.60;44.80;;;;;;4394872;32;20193;-64
2021/09/27 12:45:56;;;;;;;2.35;0.93;;;32.70;45.30;;;;;;4395691;32;20412;-64
2021/09/27 12:48:28;;;;;;;2.83;1.00;;;32.30;45.20;;;;;;4394178;32;20147;-64
2021/09/27 12:51:09;;;;;;;4.20;1.10;;;32.20;45.60;;;;;;4395890;32;20132;-65
2021/09/27 12:54:01;;;;;;;3.53;1.20;;;31.90;46.00;;;;;;4395185;32;20159;-66
2021/09/27 12:56:30;;;;;;;2.35;1.00;;;31.10;46.50;;;;;;4378505;32;20213;-65
2021/09/27 12:59:04;;;;;;;2.53;1.08;;;29.40;48.50;;;;;;4378529;32;20263;-65
2021/09/27 13:01:33;;;;;;;2.87;1.00;;;28.30;51.20;;;;;;4370541;32;20156;-65
2021/09/27 13:04:11;;;;;;;2.47;1.30;;;27.10;53.00;;;;;;4363546;32;20137;-65
2021/09/27 13:06:47;;;;;;;2.90;1.30;;;25.80;55.30;;;;;;4361691;32;20160;-64
2021/09/27 13:09:29;;;;;;;4.05;1.40;;;24.80;57.90;;;;;;4371066;32;20159;-67
2021/09/27 13:12:16;;;;;;;2.50;1.10;;;23.90;60.10;;;;;;4361917;32;20171;-66
2021/09/27 13:14:50;;;;;;;2.97;1.07;;;23.20;62.20;;;;;;4371880;32;20163;-67
2021/09/27 13:17:24;;;;;;;3.40;1.08;;;23.00;63.10;;;;;;4377944;32;20506;-67
2021/09/27 13:19:54;;;;;;;1.83;1.10;;;23.00;62.60;;;;;;4377946;32;20453;-65
2021/09/27 13:22:36;;;;;;;3.37;1.30;;;22.50;64.80;;;;;;4378025;32;20256;-64
2021/09/27 13:25:19;;;;;;;2.53;1.30;;;22.00;67.20;;;;;;4378048;32;20132;-64
2021/09/27 13:27:50;;;;;;;2.57;1.00;;;21.70;69.90;;;;;;4376026;32;20160;-65
2021/09/27 13:30:28;;;;;;;3.30;1.00;;;21.30;69.80;;;;;;4377524;32;20143;-66
2021/09/27 13:33:02;;;;;;;4.50;1.37;;;20.90;70.90;;;;;;4384361;32;20151;-66
2021/09/27 13:35:39;;;;;;;4.67;1.00;;;20.60;72.60;;;;;;4410049;32;20446;-66
2021/09/27 13:38:29;;;;;;;2.70;1.00;;;20.50;73.90;;;;;;4395507;32;20602;-66
2021/09/27 13:41:05;;;;;;;1.67;1.10;;;20.40;75.20;;;;;;4381748;32;20139;-66
2021/09/27 13:43:34;;;;;;;2.03;1.00;;;20.40;76.20;;;;;;4378328;32;20124;-67
2021/09/27 13:46:10;;;;;;;3.60;1.20;;;20.30;78.70;;;;;;4378659;32;20128;-66
2021/09/27 13:48:37;;;;;;;2.97;1.30;;;20.20;77.60;;;;;;4379631;32;20132;-67
2021/09/27 13:51:05;;;;;;;2.43;1.20;;;20.10;78.40;;;;;;4377072;32;20190;-66
2021/09/27 13:53:36;;;;;;;3.63;1.20;;;20.00;80.00;;;;;;4376674;32;20207;-66
2021/09/27 13:56:07;;;;;;;1.93;0.90;;;19.80;79.60;;;;;;4378881;32;20148;-67
2021/09/27 13:58:34;;;;;;;1.70;1.10;;;19.60;80.60;;;;;;4379368;32;20137;-66
2021/09/27 14:01:01;;;;;;;3.20;1.30;;;19.60;81.80;;;;;;4377557;32;20136;-65
2021/09/27 14:03:29;;;;;;;3.07;1.47;;;19.60;81.60;;;;;;4378442;32;20124;-67
2021/09/27 14:05:57;;;;;;;3.27;1.20;;;19.70;81.50;;;;;;4380044;32;20144;-66
2021/09/27 14:08:25;;;;;;;4.43;1.23;;;19.70;81.90;;;;;;4378169;32;20532;-66
2021/09/27 14:10:53;;;;;;;2.47;1.10;;;19.80;82.50;;;;;;4379462;32;20357;-67